Time;durP1;ratioP1;P1;durP2;ratioP2;P2;SDS_P1;SDS_P2;PMS_P1;PMS_P2;Temp;Humidity;BMP_temperature;BMP_pressure;BME280_temperature;BME280_humidity;BME280_pressure;Samples;Min_cycle;Max_cycle;Signal;HPM_P1;HPM_P2
2022/11/16 00:01:20;;;;;;;;;;;;;;;14.26;100.00;99606.09;5030616;28;19928;-73
2022/11/16 00:03:47;;;;;;;;;;;;;;;14.22;100.00;99599.88;5041728;28;19928;-73
2022/11/16 00:06:13;;;;;;;;;;;;;;;14.21;100.00;99601.84;5033453;28;19925;-73
2022/11/16 00:08:41;;;;;;;;;;;;;;;14.20;100.00;99605.88;5034333;28;19932;-73
2022/11/16 00:11:07;;;;;;;;;;;;;;;14.18;100.00;99602.75;5032020;28;19931;-73
2022/11/16 00:13:34;;;;;;;;;;;;;;;14.14;100.00;99595.78;5035010;28;20384;-73
2022/11/16 00:16:01;;;;;;;;;;;;;;;14.14;100.00;99593.75;5033530;28;19932;-74
2022/11/16 00:18:27;;;;;;;;;;;;;;;14.13;100.00;99596.97;5029540;28;19924;-74
2022/11/16 00:20:54;;;;;;;;;;;;;;;14.13;100.00;99591.41;5030425;28;19924;-73
2022/11/16 00:23:21;;;;;;;;;;;;;;;14.13;100.00;99597.75;5033794;28;19932;-75
2022/11/16 00:25:47;;;;;;;;;;;;;;;14.11;100.00;99583.50;5034771;28;19924;-73
2022/11/16 00:28:13;;;;;;;;;;;;;;;14.10;100.00;99587.53;5032991;28;19932;-73
2022/11/16 00:30:40;;;;;;;;;;;;;;;14.10;100.00;99581.97;5031918;28;19925;-74
2022/11/16 00:33:06;;;;;;;;;;;;;;;14.05;100.00;99578.97;5031932;28;20680;-74
2022/11/16 00:35:39;;;;;;;;;;;;;;;14.05;100.00;99576.19;5031117;28;19925;-74
2022/11/16 00:38:05;;;;;;;;;;;;;;;14.04;100.00;99575.41;5033162;28;19924;-73
2022/11/16 00:40:32;;;;;;;;;;;;;;;14.02;100.00;99577.88;5031055;28;19937;-74
2022/11/16 00:42:58;;;;;;;;;;;;;;;13.99;100.00;99569.63;5029969;28;19931;-74
2022/11/16 00:45:24;;;;;;;;;;;;;;;13.99;100.00;99567.66;5032242;28;19924;-74
2022/11/16 00:47:51;;;;;;;;;;;;;;;13.95;100.00;99564.22;5030437;28;19951;-74
2022/11/16 00:50:24;;;;;;;;;;;;;;;13.92;100.00;99573.44;5029751;28;19959;-74
2022/11/16 00:52:52;;;;;;;;;;;;;;;13.91;100.00;99563.53;5030803;28;19932;-73
2022/11/16 00:55:18;;;;;;;;;;;;;;;13.91;100.00;99568.31;5031354;28;19933;-74
2022/11/16 00:57:44;;;;;;;;;;;;;;;13.88;100.00;99563.66;5036891;28;19936;-72
2022/11/16 01:00:11;;;;;;;;;;;;;;;13.87;100.00;99562.88;5034237;28;20002;-74
2022/11/16 01:02:39;;;;;;;;;;;;;;;13.85;100.00;99567.31;5031477;28;20459;-74
2022/11/16 01:05:06;;;;;;;;;;;;;;;13.85;100.00;99561.75;5050703;28;19924;-75
2022/11/16 01:07:34;;;;;;;;;;;;;;;13.84;100.00;99557.44;5032452;28;20782;-74
2022/11/16 01:10:02;;;;;;;;;;;;;;;13.82;100.00;99552.31;5031759;28;20666;-74
2022/11/16 01:12:29;;;;;;;;;;;;;;;13.80;100.00;99554.75;5032758;28;19925;-75
2022/11/16 01:14:55;;;;;;;;;;;;;;;13.80;100.00;99554.00;5031362;28;20700;-74
2022/11/16 01:17:21;;;;;;;;;;;;;;;13.79;100.00;99546.88;5047630;28;19924;-75
2022/11/16 01:19:48;;;;;;;;;;;;;;;13.79;100.00;99538.53;5028442;28;20606;-75
2022/11/16 01:22:14;;;;;;;;;;;;;;;13.80;100.00;99540.09;5031724;28;19938;-75
2022/11/16 01:24:40;;;;;;;;;;;;;;;13.78;100.00;99542.53;5031009;28;19928;-75
2022/11/16 01:27:07;;;;;;;;;;;;;;;13.78;100.00;99543.31;5030129;28;19994;-75
2022/11/16 01:29:33;;;;;;;;;;;;;;;13.75;100.00;99538.66;5028900;28;20674;-74
2022/11/16 01:32:00;;;;;;;;;;;;;;;13.77;100.00;99536.19;5031291;28;19940;-74
2022/11/16 01:34:26;;;;;;;;;;;;;;;13.75;100.00;99533.09;5032462;28;20513;-74
2022/11/16 01:36:52;;;;;;;;;;;;;;;13.73;100.00;99535.53;5032348;28;19928;-74
2022/11/16 01:39:19;;;;;;;;;;;;;;;13.72;100.00;99528.44;5030801;28;20782;-74
2022/11/16 01:41:45;;;;;;;;;;;;;;;13.72;100.00;99528.44;5030542;28;19931;-74
2022/11/16 01:44:30;;;;;;;;;;;;;;;13.71;100.00;99532.44;5030174;28;19931;-74
2022/11/16 01:47:01;;;;;;;;;;;;;;;13.71;100.00;99528.88;5030257;28;19921;-74
2022/11/16 01:49:29;;;;;;;;;;;;;;;13.70;100.00;99524.53;5029915;28;19929;-74
2022/11/16 01:51:59;;;;;;;;;;;;;;;13.70;100.00;99530.84;5030413;28;19936;-74
2022/11/16 01:54:26;;;;;;;;;;;;;;;13.72;100.00;99522.88;5030391;28;21819;-74
2022/11/16 01:56:54;;;;;;;;;;;;;;;13.70;100.00;99525.31;5030954;28;19929;-74
2022/11/16 01:59:21;;;;;;;;;;;;;;;13.68;100.00;99521.41;5028834;28;19933;-74
2022/11/16 02:01:47;;;;;;;;;;;;;;;13.70;100.00;99518.97;5031017;28;19928;-74
2022/11/16 02:04:14;;;;;;;;;;;;;;;13.67;100.00;99522.66;5030639;28;19928;-74
2022/11/16 02:06:49;;;;;;;;;;;;;;;13.68;100.00;99515.84;5030937;28;19933;-74
2022/11/16 02:12:25;;;;;;;;;;;;;;;13.67;100.00;99509.50;5029469;28;19964;-75
2022/11/16 02:15:03;;;;;;;;;;;;;;;13.61;100.00;99504.97;5031435;28;19950;-74
2022/11/16 02:17:36;;;;;;;;;;;;;;;13.61;100.00;99503.00;5029652;28;19928;-74
2022/11/16 02:20:02;;;;;;;;;;;;;;;13.62;100.00;99498.19;5028980;28;19935;-74
2022/11/16 02:22:28;;;;;;;;;;;;;;;13.59;100.00;99501.84;5022223;28;20010;-74
2022/11/16 02:24:55;;;;;;;;;;;;;;;13.59;100.00;99507.41;5051023;28;19920;-73
2022/11/16 02:27:56;;;;;;;;;;;;;;;13.52;100.00;99508.44;5050037;28;20339;-74
2022/11/16 02:30:23;;;;;;;;;;;;;;;13.58;100.00;99497.53;5008151;28;19929;-73
2022/11/16 02:32:49;;;;;;;;;;;;;;;13.47;100.00;99516.56;5040916;28;19925;-74
2022/11/16 02:35:16;;;;;;;;;;;;;;;13.40;100.00;99517.53;5050433;28;20451;-74
2022/11/16 02:37:50;;;;;;;;;;;;;;;13.46;100.00;99507.44;5047875;28;19920;-73
2022/11/16 02:40:19;;;;;;;;;;;;;;;13.45;100.00;99513.44;5050852;28;20340;-72
2022/11/16 02:42:52;;;;;;;;;;;;;;;13.41;100.00;99513.56;5051046;28;20622;-74
2022/11/16 02:45:24;;;;;;;;;;;;;;;13.41;100.00;99507.22;5051479;28;19935;-74
2022/11/16 02:47:52;;;;;;;;;;;;;;;13.35;100.00;99508.97;5051883;28;19921;-73
2022/11/16 02:50:22;;;;;;;;;;;;;;;13.34;100.00;99499.88;5047991;28;19924;-74
2022/11/16 02:52:48;;;;;;;;;;;;;;;13.37;100.00;99507.34;5049622;28;19920;-72
2022/11/16 02:55:14;;;;;;;;;;;;;;;13.33;100.00;99487.19;5050789;28;19924;-74
2022/11/16 02:57:49;;;;;;;;;;;;;;;13.35;100.00;99487.53;5050786;28;19925;-74
2022/11/16 03:00:21;;;;;;;;;;;;;;;13.31;100.00;99486.88;5050442;28;19931;-73
2022/11/16 03:02:52;;;;;;;;;;;;;;;13.38;100.00;99483.09;5049843;28;19924;-73
2022/11/16 03:05:30;;;;;;;;;;;;;;;13.38;100.00;99478.31;5051046;28;20010;-73
2022/11/16 03:08:05;;;;;;;;;;;;;;;13.41;100.00;99479.44;5050529;28;20444;-73
2022/11/16 03:13:22;;;;;;;;;;;;;;;13.42;100.00;99473.44;5050964;28;19925;-73
2022/11/16 03:15:49;;;;;;;;;;;;;;;13.41;100.00;99474.66;5050837;28;19921;-72
2022/11/16 03:18:17;;;;;;;;;;;;;;;13.38;100.00;99469.19;5048326;28;19924;-73
2022/11/16 03:20:45;;;;;;;;;;;;;;;13.39;100.00;99473.56;5050090;28;19925;-73
2022/11/16 03:23:12;;;;;;;;;;;;;;;13.40;100.00;99472.31;5050477;28;20394;-73
2022/11/16 03:25:43;;;;;;;;;;;;;;;13.39;100.00;99471.53;5048348;28;19924;-72
2022/11/16 03:28:22;;;;;;;;;;;;;;;13.38;100.00;99456.09;5050516;28;19932;-71
2022/11/16 03:30:51;;;;;;;;;;;;;;;13.43;100.00;99468.66;5049680;28;19970;-73
2022/11/16 03:33:29;;;;;;;;;;;;;;;13.33;100.00;99462.19;5049100;28;20473;-72
2022/11/16 03:36:14;;;;;;;;;;;;;;;13.38;100.00;99464.44;5050207;28;19932;-72
2022/11/16 03:38:42;;;;;;;;;;;;;;;13.35;100.00;99462.53;5050039;28;19924;-72
2022/11/16 03:41:09;;;;;;;;;;;;;;;13.40;100.00;99458.44;5046724;28;20624;-70
2022/11/16 03:43:36;;;;;;;;;;;;;;;13.36;100.00;99463.34;5050516;28;19932;-72
2022/11/16 03:46:04;;;;;;;;;;;;;;;13.37;100.00;99457.34;5049173;28;19928;-73
2022/11/16 03:48:32;;;;;;;;;;;;;;;13.39;100.00;99456.88;5047762;28;19932;-72
2022/11/16 03:50:59;;;;;;;;;;;;;;;13.37;100.00;99454.56;5048918;28;19963;-72
2022/11/16 03:53:26;;;;;;;;;;;;;;;13.36;100.00;99458.53;5049733;28;19932;-72
2022/11/16 03:55:52;;;;;;;;;;;;;;;13.34;100.00;99468.53;5049424;28;19921;-72
2022/11/16 03:58:18;;;;;;;;;;;;;;;13.32;100.00;99457.09;5047782;28;19944;-74
2022/11/16 04:00:45;;;;;;;;;;;;;;;13.30;100.00;99459.56;5047805;28;19974;-73
2022/11/16 04:03:11;;;;;;;;;;;;;;;13.31;100.00;99467.44;5049663;28;19994;-72
2022/11/16 04:25:06;;;;;;;;;;;;;;;13.29;100.00;99483.00;5049858;28;20401;-72
2022/11/16 04:30:18;;;;;;;;;;;;;;;13.28;100.00;99490.56;5048910;28;19921;-72
2022/11/16 04:38:14;;;;;;;;;;;;;;;13.20;100.00;99486.44;5049251;28;20393;-73
2022/11/16 04:40:40;;;;;;;;;;;;;;;13.18;100.00;99488.09;5047301;28;19925;-72
2022/11/16 04:43:06;;;;;;;;;;;;;;;13.11;100.00;99491.09;5047121;28;19931;-72
2022/11/16 04:48:18;;;;;;;;;;;;;;;13.09;100.00;99501.88;5048706;28;19924;-73
2022/11/16 04:50:45;;;;;;;;;;;;;;;13.02;100.00;99500.09;5048524;28;19944;-73
2022/11/16 04:53:12;;;;;;;;;;;;;;;13.05;100.00;99504.75;5048320;28;19921;-71
2022/11/16 04:55:38;;;;;;;;;;;;;;;13.05;100.00;99504.75;5046786;28;20298;-73
2022/11/16 04:58:04;;;;;;;;;;;;;;;13.03;100.00;99501.66;5049230;28;19935;-72
2022/11/16 05:00:31;;;;;;;;;;;;;;;13.02;100.00;99503.66;5047403;28;19924;-73
2022/11/16 05:02:57;;;;;;;;;;;;;;;12.99;100.00;99514.84;5048813;28;19931;-73
2022/11/16 05:05:27;;;;;;;;;;;;;;;12.97;100.00;99511.72;5048434;28;19920;-73
2022/11/16 05:07:53;;;;;;;;;;;;;;;12.95;100.00;99508.59;5048438;28;19924;-72
2022/11/16 05:10:20;;;;;;;;;;;;;;;12.95;100.00;99505.81;5047258;28;19928;-71
2022/11/16 05:12:46;;;;;;;;;;;;;;;12.92;100.00;99509.47;5048393;28;20429;-71
2022/11/16 05:15:12;;;;;;;;;;;;;;;12.91;100.00;99505.16;5047361;28;19932;-70
2022/11/16 05:17:39;;;;;;;;;;;;;;;12.92;100.00;99506.69;5044414;28;20340;-70
2022/11/16 05:22:51;;;;;;;;;;;;;;;12.91;100.00;99513.47;5049694;28;19921;-71
2022/11/16 05:25:17;;;;;;;;;;;;;;;12.89;100.00;99508.38;5049246;28;19920;-71
2022/11/16 05:27:44;;;;;;;;;;;;;;;12.86;100.00;99512.03;5048485;28;20011;-72
2022/11/16 05:30:10;;;;;;;;;;;;;;;12.92;100.00;99518.59;5045521;28;19932;-72
2022/11/16 05:32:37;;;;;;;;;;;;;;;12.85;100.00;99526.34;5044225;28;19932;-73
2022/11/16 05:35:03;;;;;;;;;;;;;;;12.88;100.00;99525.47;5048170;28;19925;-71
2022/11/16 05:37:29;;;;;;;;;;;;;;;12.87;100.00;99518.34;5047688;28;20003;-73
2022/11/16 05:39:56;;;;;;;;;;;;;;;12.84;100.00;99528.34;5046906;28;20389;-73
2022/11/16 05:42:22;;;;;;;;;;;;;;;12.87;100.00;99527.44;5048275;28;20011;-72
2022/11/16 05:44:49;;;;;;;;;;;;;;;12.86;100.00;99533.47;5048234;28;20026;-73
2022/11/16 05:47:15;;;;;;;;;;;;;;;12.88;100.00;99536.56;5047940;28;20578;-73
2022/11/16 05:49:41;;;;;;;;;;;;;;;12.84;100.00;99536.69;5047117;28;20005;-73
2022/11/16 05:52:08;;;;;;;;;;;;;;;12.83;100.00;99546.22;5046362;28;19936;-72
2022/11/16 05:54:34;;;;;;;;;;;;;;;12.77;100.00;99547.19;5048276;28;19932;-73
2022/11/16 05:57:00;;;;;;;;;;;;;;;12.79;100.00;99547.53;5048499;28;19920;-73
2022/11/16 05:59:28;;;;;;;;;;;;;;;12.81;100.00;99550.66;5049663;28;19927;-73
2022/11/16 06:01:55;;;;;;;;;;;;;;;12.76;100.00;99557.50;5051761;28;20046;-72
2022/11/16 06:04:21;;;;;;;;;;;;;;;12.76;100.00;99557.50;5051473;28;19924;-72
2022/11/16 06:06:50;;;;;;;;;;;;;;;12.70;100.00;99564.06;5050735;28;20008;-72
2022/11/16 06:09:16;;;;;;;;;;;;;;;12.67;100.00;99567.69;5052320;28;19929;-73
2022/11/16 06:11:43;;;;;;;;;;;;;;;12.70;100.00;99564.06;5050704;28;19971;-72
2022/11/16 06:14:09;;;;;;;;;;;;;;;12.66;100.00;99566.16;5051796;28;19960;-73
2022/11/16 06:16:35;;;;;;;;;;;;;;;12.66;100.00;99566.91;5050704;28;19929;-73
2022/11/16 06:19:02;;;;;;;;;;;;;;;12.70;100.00;99562.03;5051430;28;19947;-71
2022/11/16 06:21:28;;;;;;;;;;;;;;;12.61;100.00;99570.25;5045309;28;20055;-72
2022/11/16 06:23:54;;;;;;;;;;;;;;;12.68;100.00;99572.81;5047612;28;19928;-72
2022/11/16 06:26:21;;;;;;;;;;;;;;;12.66;100.00;99580.03;5046680;28;20585;-73
2022/11/16 06:28:47;;;;;;;;;;;;;;;12.68;100.00;99577.56;5032002;28;19979;-71
2022/11/16 06:31:14;;;;;;;;;;;;;;;12.61;100.00;99578.56;5036034;28;19927;-72
2022/11/16 06:33:40;;;;;;;;;;;;;;;12.66;100.00;99577.25;5049664;28;20272;-71
2022/11/16 06:36:07;;;;;;;;;;;;;;;12.66;100.00;99589.13;5052228;28;19928;-72
2022/11/16 06:38:33;;;;;;;;;;;;;;;12.67;100.00;99587.91;5051550;28;20350;-73
2022/11/16 06:41:00;;;;;;;;;;;;;;;12.68;100.00;99581.13;5039026;28;19925;-72
2022/11/16 06:43:26;;;;;;;;;;;;;;;12.67;100.00;99587.13;5045963;28;19925;-71
2022/11/16 06:45:55;;;;;;;;;;;;;;;12.66;100.00;99588.34;5050199;28;19975;-72
2022/11/16 06:48:22;;;;;;;;;;;;;;;12.65;100.00;99589.56;5050035;28;19932;-73
2022/11/16 06:50:49;;;;;;;;;;;;;;;12.70;100.00;99589.03;5050631;28;19921;-72
2022/11/16 06:53:15;;;;;;;;;;;;;;;12.71;100.00;99588.59;5038786;28;19929;-72
2022/11/16 06:55:42;;;;;;;;;;;;;;;12.68;100.00;99581.13;5051045;28;20309;-72
2022/11/16 06:58:08;;;;;;;;;;;;;;;12.70;100.00;99587.00;5051387;28;19927;-71
2022/11/16 07:00:35;;;;;;;;;;;;;;;12.62;100.00;99594.00;5050084;28;19924;-72
2022/11/16 07:03:02;;;;;;;;;;;;;;;12.66;100.00;99597.44;5048092;28;19935;-72
2022/11/16 07:05:29;;;;;;;;;;;;;;;12.70;100.00;99608.47;5049646;28;19928;-72
2022/11/16 07:07:55;;;;;;;;;;;;;;;12.72;100.00;99611.56;5051091;28;19932;-73
2022/11/16 07:10:22;;;;;;;;;;;;;;;12.65;100.00;99614.53;5038359;28;19936;-72
2022/11/16 07:12:48;;;;;;;;;;;;;;;12.61;100.00;99622.97;5050332;28;19939;-72
2022/11/16 07:15:18;;;;;;;;;;;;;;;12.65;100.00;99618.09;5070768;28;20636;-72
2022/11/16 07:17:47;;;;;;;;;;;;;;;12.63;100.00;99622.53;5049015;28;19927;-73
2022/11/16 07:20:14;;;;;;;;;;;;;;;12.70;100.00;99614.75;5054866;28;19932;-72
2022/11/16 07:22:40;;;;;;;;;;;;;;;12.61;100.00;99622.97;5055722;28;19927;-72
2022/11/16 07:25:07;;;;;;;;;;;;;;;12.70;100.00;99633.44;5049826;28;19928;-71
2022/11/16 07:27:33;;;;;;;;;;;;;;;12.64;100.00;99641.50;5049604;28;19951;-74
2022/11/16 07:30:00;;;;;;;;;;;;;;;12.66;100.00;99641.84;5050245;28;20029;-72
2022/11/16 07:32:28;;;;;;;;;;;;;;;12.66;100.00;99646.63;5048577;28;20593;-71
2022/11/16 07:34:54;;;;;;;;;;;;;;;12.68;100.00;99652.50;5058126;28;19924;-74
2022/11/16 07:37:24;;;;;;;;;;;;;;;12.63;100.00;99650.28;5060479;28;20498;-72
2022/11/16 07:39:50;;;;;;;;;;;;;;;12.73;100.00;99647.19;5046702;28;19924;-72
2022/11/16 07:42:17;;;;;;;;;;;;;;;12.68;100.00;99653.28;5044317;28;19920;-72
2022/11/16 07:44:43;;;;;;;;;;;;;;;12.75;100.00;99669.75;5049278;28;19920;-70
2022/11/16 07:47:09;;;;;;;;;;;;;;;12.81;100.00;99667.22;5049863;28;19935;-73
2022/11/16 07:49:36;;;;;;;;;;;;;;;12.76;100.00;99667.78;5048031;28;19935;-73
2022/11/16 07:52:02;;;;;;;;;;;;;;;12.80;100.00;99665.69;5045986;28;19924;-73
2022/11/16 07:54:29;;;;;;;;;;;;;;;12.83;100.00;99670.34;5041664;28;19928;-73
2022/11/16 07:56:55;;;;;;;;;;;;;;;12.82;100.00;99691.00;5048691;28;19928;-73
2022/11/16 07:59:21;;;;;;;;;;;;;;;12.89;100.00;99682.47;5048587;28;20415;-72
2022/11/16 08:01:48;;;;;;;;;;;;;;;12.94;100.00;99679.19;5047695;28;20396;-72
2022/11/16 08:04:16;;;;;;;;;;;;;;;12.93;100.00;99689.50;5049217;28;19924;-71
2022/11/16 08:06:43;;;;;;;;;;;;;;;12.96;100.00;99691.41;5048924;28;20377;-72
2022/11/16 08:09:09;;;;;;;;;;;;;;;12.99;100.00;99686.97;5049952;28;19921;-70
2022/11/16 08:11:35;;;;;;;;;;;;;;;12.94;100.00;99696.63;5045742;28;20425;-72
2022/11/16 08:14:02;;;;;;;;;;;;;;;12.86;100.00;99703.56;5048182;28;19924;-72
2022/11/16 08:16:28;;;;;;;;;;;;;;;12.82;100.00;99699.31;5048506;28;20396;-70
2022/11/16 08:18:55;;;;;;;;;;;;;;;12.90;100.00;99697.94;5047573;28;19931;-72
2022/11/16 08:21:21;;;;;;;;;;;;;;;12.74;100.00;99703.50;5047374;28;19924;-72
2022/11/16 08:23:47;;;;;;;;;;;;;;;12.79;100.00;99708.50;5048917;28;20574;-74
2022/11/16 08:26:20;;;;;;;;;;;;;;;12.69;100.00;99715.16;5048828;28;19931;-72
2022/11/16 08:28:49;;;;;;;;;;;;;;;12.57;100.00;99708.28;5042113;28;20385;-72
2022/11/16 08:31:18;;;;;;;;;;;;;;;12.59;100.00;99703.06;5047889;28;20483;-73
2022/11/16 08:33:45;;;;;;;;;;;;;;;12.55;100.00;99709.91;5047857;28;19925;-72
2022/11/16 08:36:16;;;;;;;;;;;;;;;12.51;100.00;99706.47;5046733;28;20385;-73
2022/11/16 08:38:43;;;;;;;;;;;;;;;12.45;100.00;99708.97;5042200;28;19946;-72
2022/11/16 08:41:09;;;;;;;;;;;;;;;12.39;100.00;99710.72;5052678;28;20472;-73
2022/11/16 08:43:38;;;;;;;;;;;;;;;12.42;100.00;99715.41;5044537;28;20435;-72
2022/11/16 08:46:08;;;;;;;;;;;;;;;12.53;100.00;99726.25;5046278;28;20460;-74
2022/11/16 08:48:36;;;;;;;;;;;;;;;12.63;100.00;99727.97;5060795;28;20397;-72
2022/11/16 08:51:03;;;;;;;;;;;;;;;12.70;100.00;99734.09;5046006;28;19979;-72
2022/11/16 08:53:47;;;;;;;;;;;;;;;12.62;100.00;99734.72;5048421;28;20428;-74
2022/11/16 08:56:15;;;;;;;;;;;;;;;12.81;100.00;99744.94;5047903;28;20282;-74
2022/11/16 08:58:42;;;;;;;;;;;;;;;12.85;100.00;99748.41;5048710;28;19936;-73
2022/11/16 09:01:09;;;;;;;;;;;;;;;12.82;100.00;99743.72;5048186;28;19921;-72
2022/11/16 09:03:37;;;;;;;;;;;;;;;12.91;100.00;99758.56;5045432;28;19928;-73
2022/11/16 09:06:04;;;;;;;;;;;;;;;12.96;100.00;99758.03;5043796;28;20463;-73
2022/11/16 09:08:31;;;;;;;;;;;;;;;13.03;100.00;99757.13;5046033;28;19920;-73
2022/11/16 09:10:58;;;;;;;;;;;;;;;13.12;100.00;99771.13;5039989;28;20026;-74
2022/11/16 09:13:24;;;;;;;;;;;;;;;13.07;100.00;99762.56;5039157;28;19924;-74
2022/11/16 09:15:54;;;;;;;;;;;;;;;13.07;100.00;99763.34;5041941;28;19939;-74
2022/11/16 09:18:21;;;;;;;;;;;;;;;13.23;100.00;99757.72;5046696;28;19978;-73
2022/11/16 09:20:47;;;;;;;;;;;;;;;13.23;100.00;99763.28;5047176;28;19921;-74
2022/11/16 09:23:13;;;;;;;;;;;;;;;13.24;100.00;99775.19;5047113;28;19959;-74
2022/11/16 09:25:41;;;;;;;;;;;;;;;13.21;100.00;99779.63;5038219;28;19964;-74
2022/11/16 09:28:07;;;;;;;;;;;;;;;13.15;100.00;99784.16;5029104;28;19936;-74
2022/11/16 09:30:33;;;;;;;;;;;;;;;13.20;100.00;99786.41;5027078;28;19936;-74
2022/11/16 09:33:00;;;;;;;;;;;;;;;13.34;100.00;99782.47;5031234;28;19932;-75
2022/11/16 09:35:26;;;;;;;;;;;;;;;13.38;100.00;99788.69;5037901;28;19933;-73
2022/11/16 09:37:53;;;;;;;;;;;;;;;13.43;100.00;99794.50;5049614;28;19928;-72
2022/11/16 09:40:19;;;;;;;;;;;;;;;13.29;100.00;99800.44;5046450;28;19928;-73
2022/11/16 09:43:04;;;;;;;;;;;;;;;13.44;100.00;99800.84;5045627;28;20016;-73
2022/11/16 09:45:30;;;;;;;;;;;;;;;13.61;100.00;99800.38;5042234;28;19929;-73
2022/11/16 09:48:01;;;;;;;;;;;;;;;13.52;100.00;99791.88;5046493;28;20387;-73
2022/11/16 09:50:30;;;;;;;;;;;;;;;13.87;100.00;99796.44;5041932;28;19924;-73
2022/11/16 09:53:02;;;;;;;;;;;;;;;13.96;100.00;99788.22;5050913;28;19929;-73
2022/11/16 09:55:52;;;;;;;;;;;;;;;13.83;100.00;99794.97;5045571;28;19924;-74
2022/11/16 09:58:21;;;;;;;;;;;;;;;14.13;100.00;99800.03;5038357;28;19920;-73
2022/11/16 10:00:55;;;;;;;;;;;;;;;13.78;100.00;99798.31;5050762;28;19978;-74
2022/11/16 10:03:24;;;;;;;;;;;;;;;14.07;100.00;99788.69;5051685;28;19921;-74
2022/11/16 10:06:05;;;;;;;;;;;;;;;14.15;100.00;99794.81;5049968;28;20377;-72
2022/11/16 10:08:40;;;;;;;;;;;;;;;14.35;100.00;99793.41;5045706;28;20301;-74
2022/11/16 10:11:18;;;;;;;;;;;;;;;14.20;100.00;99797.81;5045884;28;19925;-72
2022/11/16 10:13:47;;;;;;;;;;;;;;;14.44;100.00;99793.53;5047825;28;19933;-73
2022/11/16 10:16:19;;;;;;;;;;;;;;;14.18;100.00;99800.25;5048445;28;19924;-72
2022/11/16 10:18:56;;;;;;;;;;;;;;;14.10;100.00;99806.47;5045545;28;19975;-73
2022/11/16 10:21:22;;;;;;;;;;;;;;;14.14;100.00;99796.06;5049000;28;20409;-73
2022/11/16 10:23:58;;;;;;;;;;;;;;;14.30;100.00;99799.53;5048268;28;19920;-73
2022/11/16 10:26:40;;;;;;;;;;;;;;;14.61;100.00;99789.41;5036422;28;20090;-74
2022/11/16 10:29:14;;;;;;;;;;;;;;;14.76;100.00;99792.50;5036149;28;19936;-72
2022/11/16 10:31:50;;;;;;;;;;;;;;;14.32;100.00;99793.53;5035592;28;19924;-72
2022/11/16 10:34:19;;;;;;;;;;;;;;;14.22;100.00;99795.41;5031931;28;19929;-73
2022/11/16 10:36:45;;;;;;;;;;;;;;;14.33;100.00;99783.94;5035548;28;19932;-73
2022/11/16 10:39:13;;;;;;;;;;;;;;;14.39;100.00;99794.09;5036206;28;19925;-72
2022/11/16 10:41:45;;;;;;;;;;;;;;;14.55;100.00;99780.03;5032157;28;20715;-73
2022/11/16 10:44:17;;;;;;;;;;;;;;;15.48;100.00;99771.72;5033508;28;19924;-73
2022/11/16 10:46:48;;;;;;;;;;;;;;;15.74;100.00;99752.84;5034511;28;19925;-73
2022/11/16 10:49:17;;;;;;;;;;;;;;;15.55;97.92;99765.09;5034278;28;19924;-73
2022/11/16 10:51:44;;;;;;;;;;;;;;;16.37;100.00;99766.38;5034234;28;19929;-73
2022/11/16 10:54:14;;;;;;;;;;;;;;;17.97;88.34;99757.88;5035467;28;19924;-72
2022/11/16 10:56:44;;;;;;;;;;;;;;;17.74;78.01;99748.13;5035636;28;19925;-73
2022/11/16 10:59:11;;;;;;;;;;;;;;;17.04;82.01;99756.03;5038039;28;19928;-73
2022/11/16 11:01:37;;;;;;;;;;;;;;;17.96;79.79;99745.13;5031993;28;19924;-73
2022/11/16 11:04:23;;;;;;;;;;;;;;;20.82;65.75;99747.31;5023527;28;19928;-73
2022/11/16 11:06:51;;;;;;;;;;;;;;;21.88;56.69;99738.91;5034032;28;19931;-75
2022/11/16 11:09:22;;;;;;;;;;;;;;;21.47;51.16;99749.47;5035916;28;19925;-73
2022/11/16 11:14:56;;;;;;;;;;;;;;;17.07;69.59;99747.50;5033376;28;19932;-71
2022/11/16 11:17:23;;;;;;;;;;;;;;;16.04;76.42;99756.91;5034190;28;19928;-72
2022/11/16 11:20:06;;;;;;;;;;;;;;;16.65;76.57;99752.06;5032714;28;19925;-73
2022/11/16 11:22:40;;;;;;;;;;;;;;;18.94;64.77;99750.78;5036742;28;20008;-74
2022/11/16 11:25:17;;;;;;;;;;;;;;;19.64;58.47;99739.47;5035872;28;19928;-74
2022/11/16 11:27:44;;;;;;;;;;;;;;;19.74;55.51;99743.75;5032597;28;20395;-73
2022/11/16 11:30:17;;;;;;;;;;;;;;;20.38;54.97;99736.19;5033272;28;20629;-73
2022/11/16 11:32:45;;;;;;;;;;;;;;;19.00;56.28;99741.22;5031221;28;20665;-73
2022/11/16 11:35:21;;;;;;;;;;;;;;;17.59;65.47;99735.25;5034383;28;19928;-73
2022/11/16 11:37:50;;;;;;;;;;;;;;;19.08;61.26;99728.41;5033948;28;19924;-73
2022/11/16 11:40:21;;;;;;;;;;;;;;;19.88;57.27;99726.13;5032198;28;19925;-73
2022/11/16 11:42:52;;;;;;;;;;;;;;;18.52;61.82;99724.88;5031918;28;19929;-73
2022/11/16 11:45:22;;;;;;;;;;;;;;;18.93;63.21;99721.97;5036071;28;19931;-73
2022/11/16 11:47:57;;;;;;;;;;;;;;;20.08;57.07;99717.81;5035420;28;19921;-72
2022/11/16 11:50:40;;;;;;;;;;;;;;;19.34;54.82;99718.25;5033587;28;19924;-73
2022/11/16 11:53:06;;;;;;;;;;;;;;;19.53;55.28;99710.44;5033281;28;19932;-74
2022/11/16 11:55:33;;;;;;;;;;;;;;;19.48;53.32;99705.50;5023296;28;20750;-72
2022/11/16 11:58:00;;;;;;;;;;;;;;;20.44;51.39;99705.38;5034115;28;19920;-73
2022/11/16 12:00:34;;;;;;;;;;;;;;;19.60;51.28;99705.22;5034230;28;20028;-72
2022/11/16 12:03:19;;;;;;;;;;;;;;;20.29;51.47;99701.84;5039147;28;19924;-73
2022/11/16 12:05:48;;;;;;;;;;;;;;;18.81;57.43;99708.19;5033641;28;19932;-71
2022/11/16 12:08:34;;;;;;;;;;;;;;;20.13;55.81;99693.91;5033833;28;20448;-74
2022/11/16 12:11:07;;;;;;;;;;;;;;;20.39;53.98;99700.47;5030325;28;19924;-74
2022/11/16 12:13:40;;;;;;;;;;;;;;;20.61;49.92;99705.63;5027954;28;19935;-74
2022/11/16 12:16:12;;;;;;;;;;;;;;;20.54;49.49;99700.41;5033260;28;19975;-75
2022/11/16 12:18:38;;;;;;;;;;;;;;;20.90;48.55;99699.88;5032972;28;19931;-76
2022/11/16 12:21:13;;;;;;;;;;;;;;;18.44;57.39;99702.03;5030370;28;20407;-73
2022/11/16 12:23:42;;;;;;;;;;;;;;;18.18;63.17;99700.09;5033334;28;20658;-73
2022/11/16 12:26:24;;;;;;;;;;;;;;;19.99;56.20;99695.47;5031294;28;20649;-75
2022/11/16 12:28:59;;;;;;;;;;;;;;;20.57;49.31;99697.41;5028716;28;19932;-75
2022/11/16 12:31:37;;;;;;;;;;;;;;;19.46;53.97;99691.97;5030261;28;19929;-75
2022/11/16 12:34:04;;;;;;;;;;;;;;;19.50;54.42;99692.53;5033564;28;19925;-74
2022/11/16 12:36:36;;;;;;;;;;;;;;;20.33;51.71;99696.78;5032967;28;20681;-75
2022/11/16 12:39:12;;;;;;;;;;;;;;;21.42;49.36;99685.44;5034100;28;20282;-75
2022/11/16 12:41:57;;;;;;;;;;;;;;;22.35;47.37;99684.75;5032340;28;19932;-76
2022/11/16 12:44:26;;;;;;;;;;;;;;;21.82;45.55;99687.41;5032203;28;19932;-74
2022/11/16 12:46:52;;;;;;;;;;;;;;;21.33;45.32;99674.34;5023398;28;19924;-75
2022/11/16 12:49:29;;;;;;;;;;;;;;;21.46;46.55;99671.16;5032101;28;20046;-75
2022/11/16 12:52:14;;;;;;;;;;;;;;;21.05;48.40;99672.47;5031721;28;20711;-74
2022/11/16 12:54:56;;;;;;;;;;;;;;;21.41;47.24;99677.50;5026544;28;19924;-74
2022/11/16 12:57:54;;;;;;;;;;;;;;;22.96;42.88;99674.63;5035826;28;20814;-74
2022/11/16 13:00:21;;;;;;;;;;;;;;;22.72;43.63;99677.81;5034472;28;20029;-74
2022/11/16 13:02:56;;;;;;;;;;;;;;;21.91;43.86;99673.16;5032438;28;19928;-75
2022/11/16 13:05:29;;;;;;;;;;;;;;;22.28;43.40;99668.31;5029001;28;19932;-74
2022/11/16 13:08:02;;;;;;;;;;;;;;;22.50;42.27;99666.44;5033524;28;20697;-74
2022/11/16 13:10:32;;;;;;;;;;;;;;;22.39;42.82;99657.91;5033124;28;19925;-73
2022/11/16 13:13:02;;;;;;;;;;;;;;;22.51;41.77;99673.59;5032190;28;19929;-73
2022/11/16 13:15:49;;;;;;;;;;;;;;;22.62;41.52;99656.75;5032690;28;20030;-75
2022/11/16 13:18:20;;;;;;;;;;;;;;;23.07;40.63;99654.13;5030447;28;20098;-74
2022/11/16 13:20:49;;;;;;;;;;;;;;;23.32;39.12;99653.97;5030297;28;20238;-75
2022/11/16 13:23:30;;;;;;;;;;;;;;;24.10;38.49;99632.25;5032127;28;19925;-74
2022/11/16 13:26:00;;;;;;;;;;;;;;;25.87;37.19;99629.38;5028829;28;19935;-74
2022/11/16 13:28:37;;;;;;;;;;;;;;;25.14;36.13;99629.09;5030414;28;19924;-75
2022/11/16 13:31:04;;;;;;;;;;;;;;;24.59;37.27;99634.97;5029015;28;19948;-72